sensor_id;sensor_type;location;lat;lon;timestamp;pressure;altitude;pressure_sealevel;temperature
68446;BMP280;35789;48.414;12.768;2023-02-11T00:00:00;98990.0;;;
68446;BMP280;35789;48.414;12.768;2023-02-11T00:05:01;99000.0;;;
68446;BMP280;35789;48.414;12.768;2023-02-11T00:10:01;99010.0;;;
68446;BMP280;35789;48.414;12.768;2023-02-11T00:15:00;99000.0;;;
68446;BMP280;35789;48.414;12.768;2023-02-11T00:20:01;99010.0;;;
68446;BMP280;35789;48.414;12.768;2023-02-11T00:25:00;99000.0;;;
68446;BMP280;35789;48.414;12.768;2023-02-11T00:30:00;99010.0;;;
68446;BMP280;35789;48.414;12.768;2023-02-11T00:35:00;99010.0;;;
68446;BMP280;35789;48.414;12.768;2023-02-11T00:40:00;99000.0;;;
68446;BMP280;35789;48.414;12.768;2023-02-11T00:45:00;99000.0;;;
68446;BMP280;35789;48.414;12.768;2023-02-11T00:50:00;99000.0;;;
68446;BMP280;35789;48.414;12.768;2023-02-11T00:55:00;99000.0;;;
68446;BMP280;35789;48.414;12.768;2023-02-11T01:00:00;99010.0;;;
68446;BMP280;35789;48.414;12.768;2023-02-11T01:05:00;99010.0;;;
68446;BMP280;35789;48.414;12.768;2023-02-11T01:10:00;99000.0;;;
68446;BMP280;35789;48.414;12.768;2023-02-11T01:15:01;98990.0;;;
68446;BMP280;35789;48.414;12.768;2023-02-11T01:20:01;98990.0;;;
68446;BMP280;35789;48.414;12.768;2023-02-11T01:25:00;99000.0;;;
68446;BMP280;35789;48.414;12.768;2023-02-11T01:30:02;99000.0;;;
68446;BMP280;35789;48.414;12.768;2023-02-11T01:35:01;99000.0;;;
68446;BMP280;35789;48.414;12.768;2023-02-11T01:40:01;99000.0;;;
68446;BMP280;35789;48.414;12.768;2023-02-11T01:50:01;98980.0;;;
68446;BMP280;35789;48.414;12.768;2023-02-11T01:55:05;98980.0;;;
68446;BMP280;35789;48.414;12.768;2023-02-11T02:00:08;98970.0;;;
68446;BMP280;35789;48.414;12.768;2023-02-11T02:05:09;98970.0;;;
68446;BMP280;35789;48.414;12.768;2023-02-11T02:10:07;98970.0;;;
68446;BMP280;35789;48.414;12.768;2023-02-11T02:15:21;98970.0;;;
68446;BMP280;35789;48.414;12.768;2023-02-11T02:20:21;98950.0;;;
68446;BMP280;35789;48.414;12.768;2023-02-11T02:25:20;98950.0;;;
68446;BMP280;35789;48.414;12.768;2023-02-11T02:30:29;98940.0;;;
68446;BMP280;35789;48.414;12.768;2023-02-11T02:35:09;98920.0;;;
68446;BMP280;35789;48.414;12.768;2023-02-11T02:40:08;98910.0;;;
68446;BMP280;35789;48.414;12.768;2023-02-11T02:45:00;98910.0;;;
68446;BMP280;35789;48.414;12.768;2023-02-11T02:50:01;98910.0;;;
68446;BMP280;35789;48.414;12.768;2023-02-11T02:55:13;98900.0;;;
68446;BMP280;35789;48.414;12.768;2023-02-11T03:00:16;98900.0;;;
68446;BMP280;35789;48.414;12.768;2023-02-11T03:05:09;98900.0;;;
68446;BMP280;35789;48.414;12.768;2023-02-11T03:10:08;98900.0;;;
68446;BMP280;35789;48.414;12.768;2023-02-11T03:15:03;98910.0;;;
68446;BMP280;35789;48.414;12.768;2023-02-11T03:20:04;98910.0;;;
68446;BMP280;35789;48.414;12.768;2023-02-11T03:25:01;98910.0;;;
68446;BMP280;35789;48.414;12.768;2023-02-11T03:30:10;98920.0;;;
68446;BMP280;35789;48.414;12.768;2023-02-11T03:35:06;98920.0;;;
68446;BMP280;35789;48.414;12.768;2023-02-11T03:40:05;98910.0;;;
68446;BMP280;35789;48.414;12.768;2023-02-11T03:45:06;98910.0;;;
68446;BMP280;35789;48.414;12.768;2023-02-11T03:50:05;98910.0;;;
68446;BMP280;35789;48.414;12.768;2023-02-11T03:55:07;98900.0;;;
68446;BMP280;35789;48.414;12.768;2023-02-11T04:00:00;98900.0;;;
68446;BMP280;35789;48.414;12.768;2023-02-11T04:05:01;98890.0;;;
68446;BMP280;35789;48.414;12.768;2023-02-11T04:10:01;98910.0;;;
68446;BMP280;35789;48.414;12.768;2023-02-11T04:15:00;98910.0;;;
68446;BMP280;35789;48.414;12.768;2023-02-11T04:20:00;98910.0;;;
68446;BMP280;35789;48.414;12.768;2023-02-11T04:25:00;98910.0;;;
68446;BMP280;35789;48.414;12.768;2023-02-11T04:30:03;98900.0;;;
68446;BMP280;35789;48.414;12.768;2023-02-11T04:35:00;98910.0;;;
68446;BMP280;35789;48.414;12.768;2023-02-11T04:40:00;98920.0;;;
68446;BMP280;35789;48.414;12.768;2023-02-11T04:45:00;98920.0;;;
68446;BMP280;35789;48.414;12.768;2023-02-11T04:50:00;98910.0;;;
68446;BMP280;35789;48.414;12.768;2023-02-11T04:55:00;98910.0;;;
68446;BMP280;35789;48.414;12.768;2023-02-11T05:00:00;98910.0;;;
68446;BMP280;35789;48.414;12.768;2023-02-11T05:05:01;98900.0;;;
68446;BMP280;35789;48.414;12.768;2023-02-11T05:10:00;98880.0;;;
68446;BMP280;35789;48.414;12.768;2023-02-11T05:15:00;98880.0;;;
68446;BMP280;35789;48.414;12.768;2023-02-11T05:20:00;98890.0;;;
68446;BMP280;35789;48.414;12.768;2023-02-11T05:25:00;98880.0;;;
68446;BMP280;35789;48.414;12.768;2023-02-11T05:30:00;98880.0;;;
68446;BMP280;35789;48.414;12.768;2023-02-11T05:35:00;98880.0;;;
68446;BMP280;35789;48.414;12.768;2023-02-11T05:40:00;98870.0;;;
68446;BMP280;35789;48.414;12.768;2023-02-11T05:45:01;98860.0;;;
68446;BMP280;35789;48.414;12.768;2023-02-11T05:50:00;98860.0;;;
68446;BMP280;35789;48.414;12.768;2023-02-11T05:55:00;98860.0;;;
68446;BMP280;35789;48.414;12.768;2023-02-11T06:00:01;98870.0;;;
68446;BMP280;35789;48.414;12.768;2023-02-11T06:05:00;98870.0;;;
68446;BMP280;35789;48.414;12.768;2023-02-11T06:10:00;98870.0;;;
68446;BMP280;35789;48.414;12.768;2023-02-11T06:15:00;98860.0;;;
68446;BMP280;35789;48.414;12.768;2023-02-11T06:20:02;98860.0;;;
68446;BMP280;35789;48.414;12.768;2023-02-11T06:25:00;98850.0;;;
68446;BMP280;35789;48.414;12.768;2023-02-11T06:30:00;98870.0;;;
68446;BMP280;35789;48.414;12.768;2023-02-11T06:35:01;98880.0;;;
68446;BMP280;35789;48.414;12.768;2023-02-11T06:40:01;98880.0;;;
68446;BMP280;35789;48.414;12.768;2023-02-11T06:45:00;98880.0;;;
68446;BMP280;35789;48.414;12.768;2023-02-11T06:50:00;98870.0;;;
68446;BMP280;35789;48.414;12.768;2023-02-11T06:55:00;98850.0;;;
68446;BMP280;35789;48.414;12.768;2023-02-11T07:00:00;98850.0;;;
68446;BMP280;35789;48.414;12.768;2023-02-11T07:05:00;98860.0;;;
68446;BMP280;35789;48.414;12.768;2023-02-11T07:10:01;98880.0;;;
68446;BMP280;35789;48.414;12.768;2023-02-11T07:15:00;98870.0;;;
68446;BMP280;35789;48.414;12.768;2023-02-11T07:20:00;98860.0;;;
68446;BMP280;35789;48.414;12.768;2023-02-11T07:25:00;98860.0;;;
68446;BMP280;35789;48.414;12.768;2023-02-11T07:30:00;98870.0;;;
68446;BMP280;35789;48.414;12.768;2023-02-11T07:35:00;98860.0;;;
68446;BMP280;35789;48.414;12.768;2023-02-11T07:40:01;98860.0;;;
68446;BMP280;35789;48.414;12.768;2023-02-11T07:45:01;98840.0;;;
68446;BMP280;35789;48.414;12.768;2023-02-11T07:50:00;98850.0;;;
68446;BMP280;35789;48.414;12.768;2023-02-11T07:55:00;98860.0;;;
68446;BMP280;35789;48.414;12.768;2023-02-11T08:00:00;98850.0;;;
68446;BMP280;35789;48.414;12.768;2023-02-11T08:05:00;98860.0;;;
68446;BMP280;35789;48.414;12.768;2023-02-11T08:10:00;98840.0;;;
68446;BMP280;35789;48.414;12.768;2023-02-11T08:15:00;98830.0;;;
68446;BMP280;35789;48.414;12.768;2023-02-11T08:20:01;98840.0;;;
68446;BMP280;35789;48.414;12.768;2023-02-11T08:25:00;98850.0;;;
68446;BMP280;35789;48.414;12.768;2023-02-11T08:30:00;98850.0;;;
68446;BMP280;35789;48.414;12.768;2023-02-11T08:35:01;98830.0;;;
68446;BMP280;35789;48.414;12.768;2023-02-11T08:40:00;98830.0;;;
68446;BMP280;35789;48.414;12.768;2023-02-11T08:45:00;98840.0;;;
68446;BMP280;35789;48.414;12.768;2023-02-11T08:50:00;98860.0;;;
68446;BMP280;35789;48.414;12.768;2023-02-11T08:55:00;98850.0;;;
68446;BMP280;35789;48.414;12.768;2023-02-11T09:00:00;98840.0;;;
68446;BMP280;35789;48.414;12.768;2023-02-11T09:05:00;98840.0;;;
68446;BMP280;35789;48.414;12.768;2023-02-11T09:10:00;98820.0;;;
68446;BMP280;35789;48.414;12.768;2023-02-11T09:15:00;98820.0;;;
68446;BMP280;35789;48.414;12.768;2023-02-11T09:20:00;98820.0;;;
68446;BMP280;35789;48.414;12.768;2023-02-11T09:25:00;98810.0;;;
68446;BMP280;35789;48.414;12.768;2023-02-11T09:30:00;98800.0;;;
68446;BMP280;35789;48.414;12.768;2023-02-11T09:35:00;98820.0;;;
68446;BMP280;35789;48.414;12.768;2023-02-11T09:40:00;98830.0;;;
68446;BMP280;35789;48.414;12.768;2023-02-11T09:45:02;98820.0;;;
68446;BMP280;35789;48.414;12.768;2023-02-11T09:50:06;98810.0;;;
68446;BMP280;35789;48.414;12.768;2023-02-11T09:55:04;98810.0;;;
68446;BMP280;35789;48.414;12.768;2023-02-11T10:00:16;98810.0;;;
68446;BMP280;35789;48.414;12.768;2023-02-11T10:05:18;98810.0;;;
68446;BMP280;35789;48.414;12.768;2023-02-11T10:10:16;98820.0;;;
68446;BMP280;35789;48.414;12.768;2023-02-11T10:15:16;98810.0;;;
68446;BMP280;35789;48.414;12.768;2023-02-11T10:20:17;98790.0;;;
68446;BMP280;35789;48.414;12.768;2023-02-11T10:25:17;98790.0;;;
68446;BMP280;35789;48.414;12.768;2023-02-11T10:30:07;98790.0;;;
68446;BMP280;35789;48.414;12.768;2023-02-11T10:35:09;98770.0;;;
68446;BMP280;35789;48.414;12.768;2023-02-11T10:40:00;98770.0;;;
68446;BMP280;35789;48.414;12.768;2023-02-11T10:45:04;98770.0;;;
68446;BMP280;35789;48.414;12.768;2023-02-11T10:50:19;98780.0;;;
68446;BMP280;35789;48.414;12.768;2023-02-11T10:55:08;98780.0;;;
68446;BMP280;35789;48.414;12.768;2023-02-11T11:00:18;98770.0;;;
68446;BMP280;35789;48.414;12.768;2023-02-11T11:05:03;98760.0;;;
68446;BMP280;35789;48.414;12.768;2023-02-11T11:10:04;98760.0;;;
68446;BMP280;35789;48.414;12.768;2023-02-11T11:15:17;98740.0;;;
68446;BMP280;35789;48.414;12.768;2023-02-11T11:20:18;98750.0;;;
68446;BMP280;35789;48.414;12.768;2023-02-11T11:25:00;98750.0;;;
68446;BMP280;35789;48.414;12.768;2023-02-11T11:30:00;98750.0;;;
68446;BMP280;35789;48.414;12.768;2023-02-11T11:35:04;98730.0;;;
68446;BMP280;35789;48.414;12.768;2023-02-11T11:40:08;98720.0;;;
68446;BMP280;35789;48.414;12.768;2023-02-11T11:45:19;98710.0;;;
68446;BMP280;35789;48.414;12.768;2023-02-11T11:50:16;98700.0;;;
68446;BMP280;35789;48.414;12.768;2023-02-11T11:55:12;98690.0;;;
68446;BMP280;35789;48.414;12.768;2023-02-11T12:00:00;98660.0;;;
68446;BMP280;35789;48.414;12.768;2023-02-11T12:05:08;98660.0;;;
68446;BMP280;35789;48.414;12.768;2023-02-11T12:10:25;98660.0;;;
68446;BMP280;35789;48.414;12.768;2023-02-11T12:15:20;98660.0;;;
68446;BMP280;35789;48.414;12.768;2023-02-11T12:20:18;98660.0;;;
68446;BMP280;35789;48.414;12.768;2023-02-11T12:25:21;98660.0;;;
68446;BMP280;35789;48.414;12.768;2023-02-11T12:30:15;98650.0;;;
68446;BMP280;35789;48.414;12.768;2023-02-11T12:35:15;98650.0;;;
68446;BMP280;35789;48.414;12.768;2023-02-11T12:40:14;98650.0;;;
68446;BMP280;35789;48.414;12.768;2023-02-11T12:45:18;98650.0;;;
68446;BMP280;35789;48.414;12.768;2023-02-11T12:50:11;98640.0;;;
68446;BMP280;35789;48.414;12.768;2023-02-11T12:55:10;98640.0;;;
68446;BMP280;35789;48.414;12.768;2023-02-11T13:00:05;98630.0;;;
68446;BMP280;35789;48.414;12.768;2023-02-11T13:05:07;98630.0;;;
68446;BMP280;35789;48.414;12.768;2023-02-11T13:10:08;98620.0;;;
68446;BMP280;35789;48.414;12.768;2023-02-11T13:15:06;98620.0;;;
68446;BMP280;35789;48.414;12.768;2023-02-11T13:20:14;98610.0;;;
68446;BMP280;35789;48.414;12.768;2023-02-11T13:25:06;98610.0;;;
68446;BMP280;35789;48.414;12.768;2023-02-11T13:30:19;98600.0;;;
68446;BMP280;35789;48.414;12.768;2023-02-11T13:35:00;98570.0;;;
68446;BMP280;35789;48.414;12.768;2023-02-11T13:40:05;98610.0;;;
68446;BMP280;35789;48.414;12.768;2023-02-11T13:45:00;98620.0;;;
68446;BMP280;35789;48.414;12.768;2023-02-11T13:50:04;98620.0;;;
68446;BMP280;35789;48.414;12.768;2023-02-11T13:55:08;98630.0;;;
68446;BMP280;35789;48.414;12.768;2023-02-11T14:05:18;98630.0;;;
68446;BMP280;35789;48.414;12.768;2023-02-11T14:10:00;98630.0;;;
68446;BMP280;35789;48.414;12.768;2023-02-11T14:15:20;98630.0;;;
68446;BMP280;35789;48.414;12.768;2023-02-11T14:20:03;98630.0;;;
68446;BMP280;35789;48.414;12.768;2023-02-11T14:25:03;98620.0;;;
68446;BMP280;35789;48.414;12.768;2023-02-11T14:30:19;98630.0;;;
68446;BMP280;35789;48.414;12.768;2023-02-11T14:35:09;98620.0;;;
68446;BMP280;35789;48.414;12.768;2023-02-11T14:40:16;98620.0;;;
68446;BMP280;35789;48.414;12.768;2023-02-11T14:45:06;98620.0;;;
68446;BMP280;35789;48.414;12.768;2023-02-11T14:50:01;98630.0;;;
68446;BMP280;35789;48.414;12.768;2023-02-11T14:55:14;98620.0;;;
68446;BMP280;35789;48.414;12.768;2023-02-11T15:00:06;98620.0;;;
68446;BMP280;35789;48.414;12.768;2023-02-11T15:05:17;98620.0;;;
68446;BMP280;35789;48.414;12.768;2023-02-11T15:10:01;98620.0;;;
68446;BMP280;35789;48.414;12.768;2023-02-11T15:15:00;98620.0;;;
68446;BMP280;35789;48.414;12.768;2023-02-11T15:20:01;98610.0;;;
68446;BMP280;35789;48.414;12.768;2023-02-11T15:25:08;98620.0;;;
68446;BMP280;35789;48.414;12.768;2023-02-11T15:30:00;98630.0;;;
68446;BMP280;35789;48.414;12.768;2023-02-11T15:35:00;98620.0;;;
68446;BMP280;35789;48.414;12.768;2023-02-11T15:40:09;98620.0;;;
68446;BMP280;35789;48.414;12.768;2023-02-11T15:45:21;98620.0;;;
68446;BMP280;35789;48.414;12.768;2023-02-11T15:50:01;98620.0;;;
68446;BMP280;35789;48.414;12.768;2023-02-11T15:55:01;98620.0;;;
68446;BMP280;35789;48.414;12.768;2023-02-11T16:00:02;98620.0;;;
68446;BMP280;35789;48.414;12.768;2023-02-11T16:05:05;98630.0;;;
68446;BMP280;35789;48.414;12.768;2023-02-11T16:10:00;98630.0;;;
68446;BMP280;35789;48.414;12.768;2023-02-11T16:15:29;98650.0;;;
68446;BMP280;35789;48.414;12.768;2023-02-11T16:20:00;98670.0;;;
68446;BMP280;35789;48.414;12.768;2023-02-11T16:25:01;98680.0;;;
68446;BMP280;35789;48.414;12.768;2023-02-11T16:30:01;98690.0;;;
68446;BMP280;35789;48.414;12.768;2023-02-11T16:35:00;98690.0;;;
68446;BMP280;35789;48.414;12.768;2023-02-11T16:40:00;98680.0;;;
68446;BMP280;35789;48.414;12.768;2023-02-11T16:45:00;98680.0;;;
68446;BMP280;35789;48.414;12.768;2023-02-11T16:50:01;98690.0;;;
68446;BMP280;35789;48.414;12.768;2023-02-11T16:55:00;98700.0;;;
68446;BMP280;35789;48.414;12.768;2023-02-11T17:00:00;98710.0;;;
68446;BMP280;35789;48.414;12.768;2023-02-11T17:05:05;98710.0;;;
68446;BMP280;35789;48.414;12.768;2023-02-11T17:10:00;98720.0;;;
68446;BMP280;35789;48.414;12.768;2023-02-11T17:15:00;98710.0;;;
68446;BMP280;35789;48.414;12.768;2023-02-11T17:20:00;98710.0;;;
68446;BMP280;35789;48.414;12.768;2023-02-11T17:25:01;98710.0;;;
68446;BMP280;35789;48.414;12.768;2023-02-11T17:30:00;98710.0;;;
68446;BMP280;35789;48.414;12.768;2023-02-11T17:35:00;98710.0;;;
68446;BMP280;35789;48.414;12.768;2023-02-11T17:40:00;98720.0;;;
68446;BMP280;35789;48.414;12.768;2023-02-11T17:45:00;98730.0;;;
68446;BMP280;35789;48.414;12.768;2023-02-11T17:50:00;98730.0;;;
68446;BMP280;35789;48.414;12.768;2023-02-11T17:55:00;98720.0;;;
68446;BMP280;35789;48.414;12.768;2023-02-11T18:00:00;98720.0;;;
68446;BMP280;35789;48.414;12.768;2023-02-11T18:05:00;98730.0;;;
68446;BMP280;35789;48.414;12.768;2023-02-11T18:10:00;98720.0;;;
68446;BMP280;35789;48.414;12.768;2023-02-11T18:15:00;98720.0;;;
68446;BMP280;35789;48.414;12.768;2023-02-11T18:20:00;98730.0;;;
68446;BMP280;35789;48.414;12.768;2023-02-11T18:25:00;98730.0;;;
68446;BMP280;35789;48.414;12.768;2023-02-11T18:30:00;98730.0;;;
68446;BMP280;35789;48.414;12.768;2023-02-11T18:35:00;98730.0;;;
68446;BMP280;35789;48.414;12.768;2023-02-11T18:40:00;98740.0;;;
68446;BMP280;35789;48.414;12.768;2023-02-11T18:45:00;98750.0;;;
68446;BMP280;35789;48.414;12.768;2023-02-11T18:50:00;98750.0;;;
68446;BMP280;35789;48.414;12.768;2023-02-11T18:55:00;98750.0;;;
68446;BMP280;35789;48.414;12.768;2023-02-11T19:00:00;98760.0;;;
68446;BMP280;35789;48.414;12.768;2023-02-11T19:05:02;98760.0;;;
68446;BMP280;35789;48.414;12.768;2023-02-11T19:10:00;98760.0;;;
68446;BMP280;35789;48.414;12.768;2023-02-11T19:15:00;98750.0;;;
68446;BMP280;35789;48.414;12.768;2023-02-11T19:20:00;98760.0;;;
68446;BMP280;35789;48.414;12.768;2023-02-11T19:25:00;98760.0;;;
68446;BMP280;35789;48.414;12.768;2023-02-11T19:30:00;98760.0;;;
68446;BMP280;35789;48.414;12.768;2023-02-11T19:35:00;98780.0;;;
68446;BMP280;35789;48.414;12.768;2023-02-11T19:40:00;98780.0;;;
68446;BMP280;35789;48.414;12.768;2023-02-11T19:45:00;98800.0;;;
68446;BMP280;35789;48.414;12.768;2023-02-11T19:50:00;98790.0;;;
68446;BMP280;35789;48.414;12.768;2023-02-11T19:55:00;98780.0;;;
68446;BMP280;35789;48.414;12.768;2023-02-11T20:00:00;98790.0;;;
68446;BMP280;35789;48.414;12.768;2023-02-11T20:05:00;98780.0;;;
68446;BMP280;35789;48.414;12.768;2023-02-11T20:10:00;98780.0;;;
68446;BMP280;35789;48.414;12.768;2023-02-11T20:15:00;98780.0;;;
68446;BMP280;35789;48.414;12.768;2023-02-11T20:20:01;98780.0;;;
68446;BMP280;35789;48.414;12.768;2023-02-11T20:25:00;98780.0;;;
68446;BMP280;35789;48.414;12.768;2023-02-11T20:30:00;98790.0;;;
68446;BMP280;35789;48.414;12.768;2023-02-11T20:35:00;98780.0;;;
68446;BMP280;35789;48.414;12.768;2023-02-11T20:40:00;98780.0;;;
68446;BMP280;35789;48.414;12.768;2023-02-11T20:45:00;98780.0;;;
68446;BMP280;35789;48.414;12.768;2023-02-11T20:50:00;98790.0;;;
68446;BMP280;35789;48.414;12.768;2023-02-11T20:55:00;98780.0;;;
68446;BMP280;35789;48.414;12.768;2023-02-11T21:00:00;98780.0;;;
68446;BMP280;35789;48.414;12.768;2023-02-11T21:05:00;98790.0;;;
68446;BMP280;35789;48.414;12.768;2023-02-11T21:10:00;98790.0;;;
68446;BMP280;35789;48.414;12.768;2023-02-11T21:15:00;98790.0;;;
68446;BMP280;35789;48.414;12.768;2023-02-11T21:20:00;98780.0;;;
68446;BMP280;35789;48.414;12.768;2023-02-11T21:25:00;98780.0;;;
68446;BMP280;35789;48.414;12.768;2023-02-11T21:30:00;98780.0;;;
68446;BMP280;35789;48.414;12.768;2023-02-11T21:35:00;98790.0;;;
68446;BMP280;35789;48.414;12.768;2023-02-11T21:40:00;98790.0;;;
68446;BMP280;35789;48.414;12.768;2023-02-11T21:45:00;98790.0;;;
68446;BMP280;35789;48.414;12.768;2023-02-11T21:50:00;98800.0;;;
68446;BMP280;35789;48.414;12.768;2023-02-11T21:55:00;98800.0;;;
68446;BMP280;35789;48.414;12.768;2023-02-11T22:00:03;98800.0;;;
68446;BMP280;35789;48.414;12.768;2023-02-11T22:05:00;98810.0;;;
68446;BMP280;35789;48.414;12.768;2023-02-11T22:10:01;98810.0;;;
68446;BMP280;35789;48.414;12.768;2023-02-11T22:15:00;98820.0;;;
68446;BMP280;35789;48.414;12.768;2023-02-11T22:20:01;98810.0;;;
68446;BMP280;35789;48.414;12.768;2023-02-11T22:25:00;98820.0;;;
68446;BMP280;35789;48.414;12.768;2023-02-11T22:30:00;98820.0;;;
68446;BMP280;35789;48.414;12.768;2023-02-11T22:35:00;98820.0;;;
68446;BMP280;35789;48.414;12.768;2023-02-11T22:40:00;98830.0;;;
68446;BMP280;35789;48.414;12.768;2023-02-11T22:45:00;98840.0;;;
68446;BMP280;35789;48.414;12.768;2023-02-11T22:50:00;98840.0;;;
68446;BMP280;35789;48.414;12.768;2023-02-11T22:55:00;98840.0;;;
68446;BMP280;35789;48.414;12.768;2023-02-11T23:00:00;98830.0;;;
68446;BMP280;35789;48.414;12.768;2023-02-11T23:05:00;98820.0;;;
68446;BMP280;35789;48.414;12.768;2023-02-11T23:10:00;98830.0;;;
68446;BMP280;35789;48.414;12.768;2023-02-11T23:15:00;98830.0;;;
68446;BMP280;35789;48.414;12.768;2023-02-11T23:20:00;98840.0;;;
68446;BMP280;35789;48.414;12.768;2023-02-11T23:25:00;98830.0;;;
68446;BMP280;35789;48.414;12.768;2023-02-11T23:30:01;98840.0;;;
68446;BMP280;35789;48.414;12.768;2023-02-11T23:35:00;98840.0;;;
68446;BMP280;35789;48.414;12.768;2023-02-11T23:40:00;98840.0;;;
68446;BMP280;35789;48.414;12.768;2023-02-11T23:45:00;98830.0;;;
68446;BMP280;35789;48.414;12.768;2023-02-11T23:50:00;98830.0;;;
68446;BMP280;35789;48.414;12.768;2023-02-11T23:55:00;98840.0;;;
